createdAt,value
2022-10-05T00:01:34.718Z,12.52
2022-10-05T00:04:23.596Z,13.68
2022-10-05T00:09:57.954Z,13.13
2022-10-05T00:12:30.545Z,13.30
2022-10-05T00:17:49.153Z,13.68
2022-10-05T00:26:18.863Z,13.88
2022-10-05T00:28:49.712Z,12.52
2022-10-05T00:31:27.764Z,14.52
2022-10-05T00:36:46.928Z,13.43
2022-10-05T00:39:17.434Z,14.07
2022-10-05T00:42:11.510Z,13.98
2022-10-05T00:45:11.778Z,15.30
2022-10-05T00:48:00.082Z,15.45
2022-10-05T00:50:39.094Z,16.40
2022-10-05T00:53:57.970Z,15.45
2022-10-05T00:57:05.067Z,15.38
2022-10-05T00:59:54.280Z,15.50
2022-10-05T01:02:44.903Z,16.00
2022-10-05T01:08:23.511Z,15.35
2022-10-05T01:14:05.822Z,16.08
2022-10-05T01:16:57.200Z,13.82
2022-10-05T01:19:54.293Z,14.15
2022-10-05T01:22:30.724Z,14.60
2022-10-05T01:25:46.814Z,15.10
2022-10-05T01:28:31.243Z,14.82
2022-10-05T01:34:12.901Z,14.98
2022-10-05T01:37:20.818Z,15.02
2022-10-05T01:40:16.025Z,14.90
2022-10-05T01:43:04.555Z,14.93
2022-10-05T01:45:59.081Z,13.13
2022-10-05T01:48:41.466Z,15.20
2022-10-05T01:51:30.628Z,16.00
2022-10-05T01:57:24.802Z,15.40
2022-10-05T02:00:04.303Z,15.02
2022-10-05T02:03:09.270Z,14.82
2022-10-05T02:05:55.135Z,15.82
2022-10-05T02:08:43.860Z,14.25
2022-10-05T02:11:20.139Z,15.25
2022-10-05T02:14:05.589Z,14.75
2022-10-05T02:16:58.729Z,13.85
2022-10-05T02:19:33.556Z,13.77
2022-10-05T11:55:11.026Z,12.63
2022-10-05T11:57:45.852Z,11.13
2022-10-05T12:00:26.416Z,10.70
2022-10-05T12:03:32.512Z,10.87
2022-10-05T12:06:21.226Z,9.05
2022-10-05T12:09:16.518Z,8.95
2022-10-05T12:12:17.154Z,8.65
2022-10-05T12:15:06.417Z,8.90
2022-10-05T12:17:53.691Z,8.00
2022-10-05T12:20:35.836Z,8.60
2022-10-05T12:23:42.785Z,9.43
2022-10-05T12:26:18.028Z,9.85
2022-10-05T12:28:52.176Z,8.77
2022-10-05T12:32:01.794Z,10.07
2022-10-05T12:35:03.265Z,9.60
2022-10-05T12:37:48.562Z,9.38
2022-10-05T12:40:30.602Z,8.82
2022-10-05T12:43:30.127Z,10.10
2022-10-05T12:46:43.899Z,9.02
2022-10-05T12:49:28.666Z,9.45
2022-10-05T12:52:22.702Z,9.13
2022-10-05T22:59:10.806Z,15.55
2022-10-05T23:01:40.898Z,15.65
2022-10-05T23:04:11.037Z,17.15
2022-10-05T23:06:41.085Z,16.20
2022-10-05T23:09:11.169Z,16.42
2022-10-05T23:11:41.211Z,16.58
2022-10-05T23:14:11.021Z,16.35
2022-10-05T23:16:41.302Z,19.10
2022-10-05T23:19:11.301Z,18.30
2022-10-05T23:21:41.477Z,16.55
2022-10-05T23:24:11.593Z,17.58
2022-10-05T23:26:41.417Z,16.13
2022-10-05T23:29:12.190Z,16.50
2022-10-05T23:31:42.253Z,16.52
2022-10-05T23:34:12.084Z,16.30
2022-10-05T23:36:42.136Z,16.48
2022-10-05T23:39:12.700Z,16.60
2022-10-05T23:41:44.443Z,16.47
2022-10-05T23:44:14.555Z,15.98
2022-10-05T23:46:44.387Z,17.30
2022-10-05T23:49:14.257Z,17.92
2022-10-05T23:51:44.650Z,17.45
2022-10-05T23:54:14.651Z,17.50
2022-10-05T23:56:45.059Z,18.17
2022-10-05T23:59:15.057Z,17.30
